Nearby METAR Reports

 

KSJC - San Jose, California, USA
Distance from station: NE 9mi, 14km
Updated: Tue, 29-Nov-2022 2:53am PST
Partly cloudy
Partly cloudy
 Wind from SSW
Wind: SSW 3 mph , 6 km/h
Temperature: 43°F , 6°C
Dew Point: 37°F , 3°C
Humidity: 81%
Barometer: 30.01 inHg , 1016.3 hPa
Clouds: Partly cloudy
Visibility: 10 miles , 16 km
Cloud details: Partly cloudy 3100 ft
2022/11/29 10:53 KSJC 291053Z AUTO 20003KT 10SM SCT031 06/03 A3001 RMK AO2 SLP161 T00610033
KNUQ - Moffett Nas/Mtn, California, USA
Distance from station: N 9mi, 14km
Updated: Tue, 29-Nov-2022 3:35am PST
Clear
Clear
 Wind from SW
Wind: SW 3 mph , 6 km/h
Temperature: 43°F , 6°C
Dew Point: 37°F , 3°C
Humidity: 81%
Barometer: 30.02 inHg , 1016.6 hPa
Clouds: Clear
Visibility: 10 miles , 16 km
2022/11/29 11:35 KNUQ 291135Z AUTO 23003KT 10SM CLR 06/03 A3002 RMK AO2
 
KPAO - Palo Alto, California, USA
Distance from station: NNW 14mi, 23km
Updated: Mon, 28-Nov-2022 8:47pm PST
NOT Current
Clear
Clear
 Wind from WNW
Wind: WNW 12 mph , 19 km/h
Temperature: 50°F , 10°C
Wind Chill: 45°F , 7°C
Dew Point: 43°F , 6°C
Humidity: 76%
Barometer: 29.99 inHg , 1015.6 hPa
Clouds: Clear
Visibility: 10 miles , 16 km
2022/11/29 04:47 KPAO 290447Z 29010KT 10SM SKC 10/06 A2999 RMK LAST
KRHV - San Jose/Reid, California, USA
Distance from station: ENE 12mi, 19km
Updated: Mon, 28-Nov-2022 9:50pm PST
NOT Current
Partly cloudy
Partly cloudy
 Wind from calm
Wind: Calm
Temperature: 48°F , 9°C
Dew Point: 41°F , 5°C
Humidity: 76%
Barometer: 30.00 inHg , 1015.9 hPa
Clouds: Partly cloudy
Visibility: 10 miles , 16 km
Cloud details: Partly cloudy 1500 ft
2022/11/29 05:50 KRHV 290550Z 00000KT 10SM SCT015 09/05 A3000
 
KOAK - Oakland, California, USA
Distance from station: NNW 31mi, 50km
Updated: Tue, 29-Nov-2022 2:53am PST
Few Clouds
Few Clouds
 Wind from NNW
Wind: NNW 5 mph , 7 km/h
Temperature: 45°F , 7°C
Wind Chill: 42°F , 6°C
Dew Point: 36°F , 2°C
Humidity: 71%
Barometer: 30.02 inHg , 1016.6 hPa
Clouds: Few Clouds
Visibility: 10 miles , 16 km
Cloud details: Few Clouds 20000 ft
2022/11/29 10:53 KOAK 291053Z 34004KT 10SM FEW200 07/02 A3002 RMK AO2 SLP163 T00720022
KSQL - San Carlos Airpo, California, USA
Distance from station: NW 21mi, 34km
Updated: Tue, 29-Nov-2022 3:35am PST

 Wind from calm
Wind: Calm
Temperature: 45°F , 7°C
Dew Point: 36°F , 2°C
Humidity: 71%
Barometer: 30.02 inHg , 1016.6 hPa
Visibility: 10 miles , 16 km
2022/11/29 11:35 KSQL 291135Z AUTO 00000KT 10SM 07/02 A3002 RMK AO2
 
KSFO - San Francisco, California, USA
Distance from station: NW 30mi, 49km
Updated: Tue, 29-Nov-2022 2:56am PST
Few Clouds
Few Clouds
 Wind from NW
Wind: NW 3 mph , 6 km/h
Temperature: 46°F , 8°C
Dew Point: 37°F , 3°C
Humidity: 71%
Barometer: 30.01 inHg , 1016.3 hPa
Clouds: Few Clouds
Visibility: 10 miles , 16 km
Cloud details: Few Clouds 1500 ft
2022/11/29 10:56 KSFO 291056Z 31003KT 10SM FEW015 08/03 A3001 RMK AO2 SLP161 T00830033
KE16 - San Martin, California, USA
Distance from station: ESE 27mi, 43km
Updated: Tue, 29-Nov-2022 3:35am PST
Partly cloudy
Partly cloudy
 Wind from N
Wind: N 5 mph , 7 km/h
Temperature: 43°F , 6°C
Wind Chill: 40°F , 4°C
Dew Point: 39°F , 4°C
Humidity: 87%
Barometer: 30.02 inHg , 1016.6 hPa
Clouds: Partly cloudy
Visibility: 10 miles , 16 km
Cloud details: Partly cloudy 1400 ft
2022/11/29 11:35 KE16 291135Z AUTO 35004KT 10SM SCT014 06/04 A3002 RMK AO2 PWINO PNO
 
KWVI - Watsonville, California, USA
Distance from station: SSE 27mi, 44km
Updated: Tue, 29-Nov-2022 2:53am PST
Clear
Clear
 Wind from NNW
Wind: NNW 5 mph , 7 km/h
Temperature: 37°F , 3°C
Wind Chill: 33°F , 1°C
Dew Point: 36°F , 2°C
Humidity: 93%
Barometer: 30.01 inHg , 1016.3 hPa
Clouds: Clear
Visibility: 10 miles , 16 km
2022/11/29 10:53 KWVI 291053Z AUTO 33004KT 10SM CLR 03/02 A3001 RMK AO2 SLP162 T00330022
KHAF - Half Moon Bay, California, USA
Distance from station: WNW 31mi, 50km
Updated: Tue, 29-Nov-2022 3:35am PST
Clear
Clear
 Wind from NE
Wind: NE 6 mph , 9 km/h
Temperature: 45°F , 7°C
Wind Chill: 42°F , 6°C
Dew Point: 37°F , 3°C
Humidity: 76%
Barometer: 30.01 inHg , 1016.3 hPa
Clouds: Clear
Visibility: 10 miles , 16 km
2022/11/29 11:35 KHAF 291135Z AUTO 05005KT 10SM CLR 07/03 A3001 RMK AO2
 
KHWD - Hayward, California, USA
Distance from station: N 28mi, 44km
Updated: Tue, 29-Nov-2022 2:54am PST
Clear
Clear
 Wind from calm
Wind: Calm
Temperature: 41°F , 5°C
Dew Point: 37°F , 3°C
Humidity: 87%
Barometer: 30.01 inHg , 1016.3 hPa
Clouds: Clear
2022/11/29 10:54 KHWD 291054Z AUTO 00000KT CLR 05/03 A3001 RMK AO2 SLP171 T00500028 $
KLVK - Livermore, California, USA
Distance from station: NNE 31mi, 51km
Updated: Tue, 29-Nov-2022 2:53am PST
Clear
Clear
 Wind from E
Wind: E 3 mph , 6 km/h
Temperature: 37°F , 3°C
Dew Point: 34°F , 1°C
Humidity: 87%
Barometer: 30.00 inHg , 1015.9 hPa
Clouds: Clear
Visibility: 10 miles , 16 km
2022/11/29 10:53 KLVK 291053Z AUTO 08003KT 10SM CLR 03/01 A3000 RMK AO2 SLP158 T00280011